Nearby METAR Reports

 

KHOT - Hot Springs, Arkansas, USA
Distance from station: W 8mi, 14km
Updated: 10/02/2022 4:53am
Clear
Clear
 Wind from calm
Wind: Calm
Temperature: 48°F , 9°C
Dew Point: 45°F , 7°C
Humidity: 87%
Barometer: 30.16 inHg , 1021.3 hPa
Clouds: Clear
Visibility: 10 miles , 16 km
2022/10/02 09:53 KHOT 020953Z AUTO 00000KT 10SM CLR 09/07 A3016 RMK AO2 SLP209 T00940072
KMWT - Mount Ida, Arkansas, USA
Distance from station: W 36mi, 58km
Updated: 10/02/2022 4:53am
Clear
Clear
 Wind from calm
Wind: Calm
Temperature: 45°F , 7°C
Dew Point: 39°F , 4°C
Humidity: 81%
Barometer: 30.15 inHg , 1021 hPa
Clouds: Clear
Visibility: 10 miles , 16 km
2022/10/02 09:53 KMWT 020953Z AUTO 00000KT 10SM CLR 07/04 A3015 RMK AO2 SLP204 T00670044
 
KLIT - Little Rock, Arkansas, USA
Distance from station: ENE 45mi, 73km
Updated: 10/02/2022 4:53am
Clear
Clear
 Wind from N
Wind: N 6 mph , 9 km/h
Temperature: 55°F , 13°C
Dew Point: 43°F , 6°C
Humidity: 63%
Barometer: 30.15 inHg , 1021 hPa
Clouds: Clear
Visibility: 10 miles , 16 km
2022/10/02 09:53 KLIT 020953Z 35005KT 10SM CLR 13/06 A3015 RMK AO2 SLP211 T01330061 $
KLRF - Little Rock Afb, Arkansas, USA
Distance from station: NE 56mi, 89km
Updated: 10/02/2022 4:55am
Clear
Clear
 Wind from calm
Wind: Calm
Temperature: 45°F , 7°C
Dew Point: 41°F , 5°C
Humidity: 87%
Barometer: 30.13 inHg , 1020.3 hPa
Clouds: Clear
Visibility: 10 miles , 16 km
2022/10/02 09:55 KLRF 020955Z AUTO 00000KT 10SM CLR 07/05 A3013 RMK AO2 SLP205 T00730053 $